Meteo Giornale » Osservazioni meteo Canada » Terrace B C
ore: 13:00 - Osservazioni Meteo Terrace B C
Lat. 54° 28' N Lon. 128° 35' W Alt. 217 metri s.l.m.
15 °C
Pioggia Foschia
Temp. 24 Ore
13 °C
17 °C
Sud
33.3 Km/h
Dew point 13 °C
Umidità 87 %
Visibilità 10 Km
Il sole sorge alle ore 06:40
Il sole tramonta alle ore 20:28
| Data e Ora | Cielo e Fenomeni | T °C | DP °C | Um. % | Pres. hPa | Vis. km | Vento km/h | |
|---|---|---|---|---|---|---|---|---|
| Oggi h: 13:00 | Pioggia Foschia | 15 | 13 | 87 | 1007 | 10 | S 33.3 | |
| Oggi h: 12:57 | Pioggia Foschia | 15 | 13 | 87 | 1007 | 10 | S 31.5 | |
| Oggi h: 12:24 | Foschia | 15 | 13 | 87 | 1007 | 10 | S 35.2 | |
| Oggi h: 12:00 | Pioggia Foschia | 16 | 13 | 82 | 1007 | 10 | S 33.3 | |
| Oggi h: 11:00 | Pioggia Foschia | 15 | 14 | 93 | 1007 | 10 | S 25.9 | |
| Oggi h: 10:00 | Pioggia Foschia | 14 | 13 | 93 | 1008 | 8 | S/SE 20.3 | |
| Oggi h: 09:24 | Pioggia Foschia | 13 | 13 | 100 | 1008 | 8 | SE 20.3 | |
| Oggi h: 09:00 | Pioggia Foschia | 13 | 13 | 100 | 1008 | 8 | SE 16.7 | |
| Oggi h: 08:00 | Pioggia Foschia | 13 | 13 | 100 | 1008 | 8 | E/SE 9.3 | |
| Oggi h: 07:56 | Pioggia Foschia | 13 | 13 | 100 | 1008 | 8 | E/SE 11.1 | |
| Oggi h: 07:29 | Foschia | 13 | 13 | 100 | 1008 | 10 | S/SE 14.8 | |
| Oggi h: 07:00 | Pioggia Foschia | 13 | 13 | 100 | 1008 | 8 | E/SE 11.1 | |
| Oggi h: 06:00 | Pioggia Foschia | 13 | 13 | 100 | 1009 | 8 | S/SE 16.7 | |
| Oggi h: 05:00 | Pioggia Foschia | 13 | 13 | 100 | 1009 | 5 | SE 16.7 | |
| Oggi h: 04:00 | Pioggia Foschia | 13 | 13 | 100 | 1009 | 6 | S/SE 20.3 | |
| Oggi h: 03:00 | Pioggia Foschia | 13 | 13 | 100 | 1010 | 5 | SE 11.1 | |
| Oggi h: 02:20 | Pioggia Foschia | 13 | 13 | 100 | 1010 | 5 | SE 13 | |
| Oggi h: 02:00 | Pioggia Foschia | 13 | 13 | 100 | 1010 | 6 | S/SE 16.7 | |
| Oggi h: 01:28 | Pioggia Foschia | 13 | 13 | 100 | 1011 | 5 | S/SE 16.7 | |
| Oggi h: 01:07 | Pioggia Foschia | 13 | 13 | 100 | 1011 | 5 | SE 14.8 | |
| Oggi h: 01:00 | Pioggia Foschia | 13 | 13 | 100 | 1011 | 6 | SE 11.1 | |
| Oggi h: 00:00 | Pioggia | 13 | 13 | 100 | 1011 | 13 | SE 9.3 | |
| Ieri h: 23:00 | Pioggia | 13 | 13 | 100 | 1011 | 10 | S/SE 11.1 | |
| Ieri h: 22:00 | Pioggia | 14 | 13 | 93 | 1012 | 10 | S 20.3 | |
| Ieri h: 21:38 | Pioggia | 14 | 13 | 93 | 1012 | 10 | S 22.2 | |
| Ieri h: 21:00 | Nuvoloso | 14 | 13 | 93 | 1012 | 24 | S 25.9 | |
| Ieri h: 20:14 | Nuvoloso | 14 | 12 | 87 | 1011 | 24 | S/SE 22.2 | |
| Ieri h: 20:00 | Pioggia | 14 | 12 | 87 | 1012 | 24 | S/SE 22.2 | |
| Ieri h: 19:00 | Pioggia | 15 | 12 | 82 | 1012 | 24 | S/SE 27.8 | |
| Ieri h: 18:55 | Pioggia | 15 | 12 | 82 | 1012 | 24 | S/SE 27.8 | |
| Ieri h: 18:18 | Pioggia nelle vicinanze | 16 | 12 | 77 | 1012 | 24 | S/SE 25.9 | |
| Ieri h: 18:00 | Pioggia | 15 | 12 | 82 | 1012 | 10 | S/SE 27.8 | |
| Ieri h: 17:00 | Pioggia | 15 | 13 | 87 | 1012 | 10 | S/SE 22.2 | |
| Ieri h: 16:00 | Pioggia | 16 | 12 | 77 | 1013 | 24 | S 25.9 | |
| Ieri h: 15:56 | Pioggia | 16 | 12 | 77 | 1013 | 24 | S 27.8 | |
| Ieri h: 15:00 | Pioggia nelle vicinanze | 17 | 11 | 67 | 1013 | 24 | S 29.6 | |



